createdAt,value
2022-07-26T00:02:47.503Z,21.24
2022-07-26T00:07:50.350Z,21.30
2022-07-26T00:12:52.431Z,21.17
2022-07-26T00:17:54.418Z,21.25
2022-07-26T00:22:56.470Z,21.14
2022-07-26T00:27:58.404Z,21.16
2022-07-26T00:33:00.466Z,20.98
2022-07-26T00:38:03.616Z,21.03
2022-07-26T00:43:05.837Z,20.88
2022-07-26T00:48:08.411Z,20.80
2022-07-26T00:53:10.452Z,20.78
2022-07-26T00:58:13.549Z,20.77
2022-07-26T01:03:16.101Z,20.80
2022-07-26T01:08:18.176Z,20.73
2022-07-26T01:13:21.224Z,20.63
2022-07-26T01:18:23.264Z,20.63
2022-07-26T01:23:25.277Z,20.63
2022-07-26T01:28:27.285Z,20.49
2022-07-26T01:33:29.463Z,20.46
2022-07-26T01:38:31.627Z,20.45
2022-07-26T01:43:33.641Z,20.55
2022-07-26T01:48:36.037Z,20.59
2022-07-26T01:53:38.025Z,20.55
2022-07-26T01:58:41.158Z,20.51
2022-07-26T02:03:43.301Z,20.39
2022-07-26T02:08:45.345Z,20.40
2022-07-26T02:13:52.737Z,20.45
2022-07-26T02:18:55.101Z,20.41
2022-07-26T02:23:57.085Z,20.35
2022-07-26T02:28:59.246Z,20.43
2022-07-26T02:34:01.298Z,20.42
2022-07-26T02:39:04.278Z,20.51
2022-07-26T02:44:07.001Z,20.34
2022-07-26T02:49:09.492Z,20.36
2022-07-26T02:54:12.118Z,20.10
2022-07-26T02:59:14.322Z,20.04
2022-07-26T03:04:16.358Z,19.85
2022-07-26T03:09:18.376Z,19.94
2022-07-26T03:14:20.317Z,19.97
2022-07-26T03:19:22.502Z,20.22
2022-07-26T03:24:24.643Z,20.63
2022-07-26T03:29:26.674Z,20.90
2022-07-26T03:34:28.687Z,21.67
2022-07-26T03:39:31.945Z,22.34
2022-07-26T03:44:34.563Z,22.51
2022-07-26T03:49:36.844Z,22.46
2022-07-26T03:54:38.938Z,22.36
2022-07-26T03:59:41.099Z,22.52
2022-07-26T04:04:43.340Z,22.62
2022-07-26T04:09:45.483Z,22.41
2022-07-26T04:14:47.433Z,22.08
2022-07-26T04:19:49.517Z,21.99
2022-07-26T04:24:51.527Z,22.01
2022-07-26T04:29:53.613Z,21.93
2022-07-26T04:34:55.921Z,22.11
2022-07-26T04:39:57.953Z,22.31
2022-07-26T04:45:04.400Z,22.52
2022-07-26T04:50:11.121Z,22.35
2022-07-26T04:55:13.295Z,22.63
2022-07-26T05:00:22.816Z,22.71
2022-07-26T05:05:27.729Z,23.16
2022-07-26T05:10:35.196Z,23.09
2022-07-26T05:15:37.295Z,23.55
2022-07-26T05:20:39.598Z,23.32
2022-07-26T05:25:41.627Z,23.72
2022-07-26T05:30:44.050Z,24.21
2022-07-26T05:35:46.986Z,24.48
2022-07-26T05:40:50.818Z,24.90
2022-07-26T05:45:53.294Z,24.87
2022-07-26T05:51:00.182Z,24.92
2022-07-26T05:56:02.457Z,25.21
2022-07-26T06:01:04.727Z,25.60
2022-07-26T06:06:07.027Z,25.67
2022-07-26T06:11:09.872Z,25.42
2022-07-26T06:16:11.892Z,26.02
2022-07-26T06:21:14.140Z,25.73
2022-07-26T06:26:16.493Z,25.97
2022-07-26T06:31:19.360Z,26.02
2022-07-26T06:36:24.250Z,26.37
2022-07-26T06:41:29.312Z,26.49
2022-07-26T06:46:31.630Z,26.80
2022-07-26T06:51:35.273Z,26.72
2022-07-26T06:56:37.552Z,26.92
2022-07-26T07:01:58.399Z,26.99
2022-07-26T07:07:08.566Z,26.67
2022-07-26T07:12:10.959Z,27.14
2022-07-26T07:17:18.514Z,27.51
2022-07-26T07:22:22.078Z,27.31
2022-07-26T07:27:24.582Z,27.60
2022-07-26T07:32:29.510Z,27.89
2022-07-26T07:37:52.336Z,28.17
2022-07-26T07:42:56.158Z,28.25
2022-07-26T07:47:58.586Z,28.69
2022-07-26T07:53:00.946Z,28.86
2022-07-26T07:58:04.215Z,29.12
2022-07-26T08:03:06.748Z,30.03
2022-07-26T08:08:10.213Z,30.41
2022-07-26T08:13:13.004Z,30.19
2022-07-26T08:18:15.008Z,30.79
2022-07-26T08:23:19.461Z,30.90
2022-07-26T08:28:45.213Z,31.21
2022-07-26T08:33:45.792Z,31.50
2022-07-26T08:38:48.821Z,31.24
2022-07-26T08:43:52.634Z,32.07
2022-07-26T08:48:56.912Z,31.98
2022-07-26T08:54:05.625Z,32.09
2022-07-26T08:59:22.312Z,32.91
2022-07-26T09:04:37.390Z,32.24
2022-07-26T09:09:56.011Z,32.93
2022-07-26T09:14:59.084Z,33.11
2022-07-26T09:20:11.501Z,33.27
2022-07-26T09:25:20.076Z,33.77
2022-07-26T09:30:22.384Z,33.55
2022-07-26T09:35:49.813Z,33.36
2022-07-26T09:40:51.483Z,33.42
2022-07-26T09:46:05.801Z,33.49
2022-07-26T09:51:08.582Z,33.19
2022-07-26T09:56:11.379Z,33.16
2022-07-26T10:01:13.427Z,33.08
2022-07-26T10:06:15.627Z,32.77
2022-07-26T10:11:19.357Z,33.08
2022-07-26T10:16:32.501Z,32.33
2022-07-26T10:21:35.286Z,32.77
2022-07-26T10:26:38.565Z,33.06
2022-07-26T10:31:40.766Z,33.12
2022-07-26T10:36:42.810Z,32.01
2022-07-26T10:42:00.222Z,31.64
2022-07-26T10:47:03.901Z,32.02
2022-07-26T10:52:23.632Z,31.97
2022-07-26T10:57:52.146Z,31.43
2022-07-26T11:02:59.077Z,32.43
2022-07-26T11:08:10.952Z,30.93
2022-07-26T11:13:13.206Z,31.28
2022-07-26T11:18:22.202Z,30.66
2022-07-26T11:23:24.522Z,31.00
2022-07-26T11:28:26.643Z,31.34
2022-07-26T11:33:39.912Z,30.49
2022-07-26T11:38:49.547Z,31.52
2022-07-26T11:43:52.646Z,30.47
2022-07-26T11:48:55.239Z,31.20
2022-07-26T11:54:00.687Z,30.97
2022-07-26T11:59:03.612Z,30.35
2022-07-26T12:04:05.813Z,29.20
2022-07-26T12:09:08.060Z,28.79
2022-07-26T12:14:13.746Z,28.34
2022-07-26T12:19:25.912Z,28.04
2022-07-26T12:24:44.368Z,27.43
2022-07-26T12:29:57.126Z,27.04
2022-07-26T12:35:09.040Z,26.02
2022-07-26T12:40:19.635Z,26.52
2022-07-26T12:45:25.148Z,26.67
2022-07-26T12:50:28.859Z,25.63
2022-07-26T12:55:31.739Z,24.86
2022-07-26T13:00:34.110Z,24.54
2022-07-26T13:05:36.129Z,24.28
2022-07-26T13:10:38.156Z,24.31
2022-07-26T13:15:40.384Z,23.64
2022-07-26T13:20:42.447Z,23.30
2022-07-26T13:25:44.419Z,22.11
2022-07-26T13:30:46.707Z,19.97
2022-07-26T13:35:50.140Z,20.18
2022-07-26T13:40:53.100Z,20.28
2022-07-26T13:45:55.200Z,20.18
2022-07-26T13:50:57.711Z,20.15
2022-07-26T13:55:59.726Z,20.20
2022-07-26T14:01:03.382Z,20.33
2022-07-26T14:06:05.973Z,20.28
2022-07-26T14:11:08.024Z,20.63
2022-07-26T14:16:10.340Z,20.55
2022-07-26T14:21:12.539Z,20.75
2022-07-26T14:26:15.791Z,20.90
2022-07-26T14:31:18.546Z,20.78
2022-07-26T14:36:20.628Z,20.73
2022-07-26T14:41:22.733Z,21.01
2022-07-26T14:46:25.400Z,20.93
2022-07-26T14:51:27.811Z,21.01
2022-07-26T14:56:29.846Z,21.24
2022-07-26T15:01:32.805Z,21.63
2022-07-26T15:06:34.926Z,21.78
2022-07-26T15:11:37.233Z,21.95
2022-07-26T15:16:39.390Z,21.54
2022-07-26T15:21:41.529Z,21.83
2022-07-26T15:26:46.855Z,21.88
2022-07-26T15:31:49.396Z,21.61
2022-07-26T15:36:52.154Z,21.93
2022-07-26T15:41:55.116Z,21.98
2022-07-26T15:46:57.713Z,21.96
2022-07-26T15:52:00.134Z,22.19
2022-07-26T15:57:02.113Z,22.32
2022-07-26T16:02:08.057Z,22.13
2022-07-26T16:07:10.042Z,21.98
2022-07-26T16:12:12.046Z,22.06
2022-07-26T16:17:14.299Z,21.81
2022-07-26T16:22:17.247Z,21.82
2022-07-26T16:27:19.390Z,21.81
2022-07-26T16:32:21.619Z,21.59
2022-07-26T16:37:23.831Z,21.55
2022-07-26T16:42:25.909Z,21.42
2022-07-26T16:47:27.947Z,21.25
2022-07-26T16:52:30.018Z,21.49
2022-07-26T16:57:32.007Z,21.35
2022-07-26T17:02:34.302Z,21.13
2022-07-26T17:07:37.152Z,20.86
2022-07-26T17:12:39.286Z,20.89
2022-07-26T17:17:44.635Z,20.77
2022-07-26T17:22:49.002Z,20.80
2022-07-26T17:27:50.992Z,20.87
2022-07-26T17:32:53.522Z,21.11
2022-07-26T17:37:56.087Z,21.15
2022-07-26T17:42:58.598Z,20.94
2022-07-26T17:48:04.372Z,21.30
2022-07-26T17:53:08.083Z,21.34
2022-07-26T17:58:11.306Z,21.30
2022-07-26T18:03:13.579Z,21.46
2022-07-26T18:08:15.871Z,21.35
2022-07-26T18:13:18.279Z,21.37
2022-07-26T18:18:20.327Z,21.57
2022-07-26T18:23:22.381Z,21.51
2022-07-26T18:28:24.756Z,21.40
2022-07-26T18:33:26.870Z,21.65
2022-07-26T18:38:28.939Z,21.46
2022-07-26T18:43:31.051Z,21.61
2022-07-26T18:48:33.215Z,21.36
2022-07-26T18:53:35.386Z,21.19
2022-07-26T18:58:37.962Z,21.44
2022-07-26T19:03:45.062Z,21.36
2022-07-26T19:08:47.527Z,21.47
2022-07-26T19:13:49.619Z,21.44
2022-07-26T19:18:56.899Z,21.46
2022-07-26T19:23:59.476Z,21.36
2022-07-26T19:29:01.646Z,21.20
2022-07-26T19:34:03.689Z,21.14
2022-07-26T19:39:05.832Z,21.23
2022-07-26T19:44:07.913Z,21.16
2022-07-26T19:49:12.810Z,21.16
2022-07-26T19:54:15.355Z,21.11
2022-07-26T19:59:22.996Z,21.07
2022-07-26T20:04:25.742Z,20.99
2022-07-26T20:09:29.746Z,20.99
2022-07-26T20:14:32.131Z,20.91
2022-07-26T20:19:35.581Z,20.76
2022-07-26T20:24:38.390Z,20.65
2022-07-26T20:29:41.437Z,20.64
2022-07-26T20:34:43.713Z,20.48
2022-07-26T20:39:45.753Z,20.45
2022-07-26T20:44:48.993Z,20.35
2022-07-26T20:49:51.191Z,20.36
2022-07-26T20:54:53.371Z,20.19
2022-07-26T20:59:55.473Z,20.29
2022-07-26T21:04:59.063Z,20.24
2022-07-26T21:10:01.225Z,20.28
2022-07-26T21:15:03.687Z,20.32
2022-07-26T21:20:06.604Z,20.24
2022-07-26T21:25:08.996Z,20.28
2022-07-26T21:30:12.589Z,20.24
2022-07-26T21:35:14.658Z,20.19
2022-07-26T21:40:16.636Z,20.16
2022-07-26T21:45:19.379Z,20.13
2022-07-26T21:50:21.945Z,20.10
2022-07-26T21:55:24.086Z,20.02
2022-07-26T22:00:26.072Z,19.96
2022-07-26T22:05:42.495Z,19.87
2022-07-26T22:10:45.232Z,19.75
2022-07-26T22:15:47.538Z,19.65
2022-07-26T22:20:50.015Z,19.55
2022-07-26T22:25:52.114Z,19.47
2022-07-26T22:30:54.904Z,19.35
2022-07-26T22:35:57.008Z,19.28
2022-07-26T22:41:00.063Z,19.22
2022-07-26T22:46:02.207Z,19.14
2022-07-26T22:51:04.304Z,19.16
2022-07-26T22:56:06.660Z,19.08
2022-07-26T23:01:08.663Z,19.03
2022-07-26T23:06:25.153Z,18.93
2022-07-26T23:11:33.005Z,18.83
2022-07-26T23:16:35.088Z,18.79
2022-07-26T23:21:37.169Z,18.76
2022-07-26T23:26:39.333Z,18.71
2022-07-26T23:31:42.305Z,18.69
2022-07-26T23:36:44.537Z,18.69
2022-07-26T23:41:46.552Z,18.67
2022-07-26T23:46:48.723Z,18.62
2022-07-26T23:51:50.982Z,18.55
2022-07-26T23:56:53.043Z,18.49
